createdAt,value
2023-07-19T00:01:34.354Z,94491.81
2023-07-19T00:04:00.938Z,94492.31
2023-07-19T00:06:27.419Z,94466.38
2023-07-19T00:08:53.919Z,94492.97
2023-07-19T00:11:20.626Z,94468.16
2023-07-19T00:13:47.351Z,94487.00
2023-07-19T00:16:13.907Z,94476.22
2023-07-19T00:18:40.407Z,94487.84
2023-07-19T00:21:07.055Z,94470.09
2023-07-19T00:23:33.600Z,94481.84
2023-07-19T00:26:00.181Z,94477.50
2023-07-19T00:28:26.774Z,94480.44
2023-07-19T00:31:03.350Z,94469.94
2023-07-19T00:33:29.845Z,94470.28
2023-07-19T00:35:56.347Z,94481.56
2023-07-19T00:38:22.952Z,94456.41
2023-07-19T00:40:50.133Z,94439.66
2023-07-19T00:43:16.828Z,94445.94
2023-07-19T00:45:53.438Z,94463.84
2023-07-19T00:48:20.068Z,94448.66
2023-07-19T00:50:46.607Z,94456.25
2023-07-19T00:53:13.129Z,94461.91
2023-07-19T00:55:39.828Z,94448.66
2023-07-19T00:58:06.375Z,94435.28
2023-07-19T01:00:33.023Z,94457.69
2023-07-19T01:03:00.225Z,94454.66
2023-07-19T01:05:27.855Z,94437.38
2023-07-19T01:07:54.818Z,94437.72
2023-07-19T01:10:21.331Z,94426.88
2023-07-19T01:13:09.877Z,94449.81
2023-07-19T01:15:37.282Z,94429.34
2023-07-19T01:18:04.022Z,94458.16
2023-07-19T01:20:30.623Z,94436.56
2023-07-19T01:22:57.372Z,94422.91
2023-07-19T01:25:24.220Z,94463.03
2023-07-19T01:27:50.771Z,94455.44
2023-07-19T01:30:17.266Z,94458.97
2023-07-19T01:32:44.461Z,94439.66
2023-07-19T01:35:11.034Z,94419.69
2023-07-19T01:37:37.581Z,94447.56
2023-07-19T01:40:07.527Z,94450.13
2023-07-19T01:42:34.032Z,94473.03
2023-07-19T01:45:02.187Z,94470.28
2023-07-19T01:47:29.003Z,94470.59
2023-07-19T01:49:55.557Z,94462.56
2023-07-19T01:52:22.290Z,94464.63
2023-07-19T01:54:48.799Z,94473.00
2023-07-19T01:57:15.935Z,94474.44
2023-07-19T01:59:42.470Z,94471.88
2023-07-19T02:02:09.110Z,94473.81
2023-07-19T02:04:35.700Z,94471.88
2023-07-19T02:07:02.188Z,94448.19
2023-07-19T02:09:28.807Z,94464.44
2023-07-19T02:11:55.424Z,94453.31
2023-07-19T02:14:22.303Z,94451.88
2023-07-19T02:16:48.825Z,94500.56
2023-07-19T02:19:15.366Z,94503.16
2023-07-19T02:21:42.129Z,94497.66
2023-07-19T02:24:08.614Z,94501.69
2023-07-19T02:26:35.125Z,94512.16
2023-07-19T02:29:01.814Z,94515.22
2023-07-19T02:31:28.360Z,94501.84
2023-07-19T02:33:54.895Z,94508.44
2023-07-19T02:36:21.412Z,94511.97
2023-07-19T02:38:47.907Z,94504.06
2023-07-19T02:41:14.432Z,94487.09
2023-07-19T02:43:40.920Z,94512.63
2023-07-19T02:46:07.474Z,94494.25
2023-07-19T02:48:33.984Z,94501.31
2023-07-19T02:51:00.542Z,94502.25
2023-07-19T02:53:27.221Z,94509.69
2023-07-19T02:55:53.764Z,94490.03
2023-07-19T02:58:20.237Z,94496.63
2023-07-19T03:00:46.810Z,94472.44
2023-07-19T03:03:13.897Z,94489.34
2023-07-19T03:05:43.415Z,94504.38
2023-07-19T03:08:10.029Z,94516.31
2023-07-19T03:10:37.105Z,94493.22
2023-07-19T03:13:04.099Z,94515.00
2023-07-19T03:15:33.993Z,94512.91
2023-07-19T03:18:01.440Z,94512.91
2023-07-19T03:20:29.004Z,94524.03
2023-07-19T03:22:56.395Z,94522.22
2023-07-19T03:25:24.026Z,94503.03
2023-07-19T03:27:50.893Z,94501.41
2023-07-19T03:30:17.501Z,94501.41
2023-07-19T03:32:44.063Z,94498.84
2023-07-19T03:35:10.673Z,94513.38
2023-07-19T03:37:37.350Z,94523.69
2023-07-19T03:40:05.356Z,94505.63
2023-07-19T03:42:32.251Z,94504.16
2023-07-19T03:44:58.752Z,94529.81
2023-07-19T03:47:26.363Z,94499.00
2023-07-19T03:49:52.936Z,94501.28
2023-07-19T03:52:19.486Z,94497.75
2023-07-19T03:54:45.974Z,94503.38
2023-07-19T03:57:12.514Z,94510.19
2023-07-19T03:59:39.019Z,94498.22
2023-07-19T04:02:05.879Z,94508.53
2023-07-19T04:04:32.538Z,94486.59
2023-07-19T04:06:59.167Z,94508.25
2023-07-19T04:09:25.744Z,94503.41
2023-07-19T04:11:52.271Z,94506.97
2023-07-19T04:14:18.823Z,94497.91
2023-07-19T04:16:46.255Z,94503.94
2023-07-19T04:19:13.182Z,94481.47
2023-07-19T04:21:39.684Z,94477.13
2023-07-19T04:24:06.440Z,94485.53
2023-07-19T04:26:32.953Z,94484.41
2023-07-19T04:28:59.512Z,94483.28
2023-07-19T04:31:26.003Z,94494.91
2023-07-19T04:33:52.553Z,94483.75
2023-07-19T04:36:19.425Z,94496.00
2023-07-19T04:38:46.257Z,94494.91
2023-07-19T04:41:12.776Z,94508.28
2023-07-19T04:43:39.326Z,94494.25
2023-07-19T04:46:06.194Z,94501.34
2023-07-19T04:48:32.792Z,94486.69
2023-07-19T04:50:59.439Z,94509.06
2023-07-19T04:53:26.434Z,94517.31
2023-07-19T04:55:53.654Z,94498.63
2023-07-19T04:58:20.221Z,94527.78
2023-07-19T05:00:46.799Z,94519.56
2023-07-19T05:03:13.468Z,94519.09
2023-07-19T05:05:40.355Z,94526.19
2023-07-19T05:08:07.333Z,94525.25
2023-07-19T05:10:37.950Z,94543.63
2023-07-19T05:13:05.473Z,94546.72
2023-07-19T05:15:32.619Z,94561.06
2023-07-19T05:18:00.719Z,94557.69
2023-07-19T05:20:27.434Z,94551.34
2023-07-19T05:22:53.973Z,94547.66
2023-07-19T05:25:20.469Z,94540.38
2023-07-19T05:27:47.039Z,94520.56
2023-07-19T05:30:13.741Z,94551.31
2023-07-19T05:32:40.304Z,94561.00
2023-07-19T05:35:07.843Z,94543.44
2023-07-19T05:37:34.359Z,94562.13
2023-07-19T05:40:00.854Z,94565.03
2023-07-19T05:42:27.434Z,94543.22
2023-07-19T05:44:53.990Z,94551.28
2023-07-19T05:47:20.515Z,94533.88
2023-07-19T05:49:47.091Z,94540.66
2023-07-19T05:52:13.577Z,94553.03
2023-07-19T05:54:40.101Z,94549.16
2023-07-19T05:57:06.664Z,94542.03
2023-07-19T05:59:33.826Z,94497.41
2023-07-19T06:02:00.415Z,94529.72
2023-07-19T06:04:27.755Z,94500.91
2023-07-19T06:06:54.368Z,94506.44
2023-07-19T06:09:20.852Z,94531.59
2023-07-19T06:11:47.361Z,94516.59
2023-07-19T06:14:13.848Z,94540.63
2023-07-19T06:16:40.756Z,94549.94
2023-07-19T06:19:07.327Z,94539.97
2023-07-19T06:21:33.839Z,94533.47
2023-07-19T06:24:00.386Z,94522.00
2023-07-19T06:26:26.952Z,94531.56
2023-07-19T06:28:54.214Z,94527.97
2023-07-19T06:31:20.987Z,94543.91
2023-07-19T06:33:47.759Z,94534.06
2023-07-19T06:36:14.253Z,94503.38
2023-07-19T06:38:40.876Z,94522.88
2023-07-19T06:41:07.554Z,94522.53
2023-07-19T06:43:34.292Z,94530.56
2023-07-19T06:46:00.870Z,94565.97
2023-07-19T06:48:27.402Z,94561.75
2023-07-19T06:50:53.926Z,94577.75
2023-07-19T06:53:20.467Z,94568.72
2023-07-19T06:55:47.010Z,94546.59
2023-07-19T06:58:13.520Z,94556.28
2023-07-19T07:00:40.144Z,94566.69
2023-07-19T07:03:06.855Z,94566.16
2023-07-19T07:05:34.660Z,94525.47
2023-07-19T07:08:01.167Z,94557.31
2023-07-19T07:10:27.685Z,94541.88
2023-07-19T07:12:54.194Z,94524.34
2023-07-19T07:15:20.700Z,94546.28
2023-07-19T07:17:49.832Z,94532.88
2023-07-19T07:20:16.260Z,94536.88
2023-07-19T07:22:42.819Z,94529.53
2023-07-19T07:25:09.941Z,94519.09
2023-07-19T07:27:36.652Z,94533.97
2023-07-19T07:30:03.423Z,94533.69
2023-07-19T07:32:30.031Z,94508.78
2023-07-19T07:34:56.616Z,94518.75
2023-07-19T07:37:23.129Z,94515.84
2023-07-19T07:39:49.670Z,94517.03
2023-07-19T07:42:16.200Z,94499.41
2023-07-19T07:44:42.693Z,94498.50
2023-07-19T07:47:09.234Z,94482.69
2023-07-19T07:49:35.774Z,94487.09
2023-07-19T07:52:02.852Z,94482.66
2023-07-19T07:54:29.348Z,94495.00
2023-07-19T07:56:56.001Z,94481.94
2023-07-19T07:59:22.574Z,94475.00
2023-07-19T08:01:49.092Z,94486.53
2023-07-19T08:04:15.594Z,94453.31
2023-07-19T08:06:42.297Z,94471.91
2023-07-19T08:09:08.870Z,94459.41
2023-07-19T08:11:35.449Z,94453.66
2023-07-19T08:14:02.404Z,94466.53
2023-07-19T08:16:29.369Z,94480.31
2023-07-19T08:18:56.037Z,94473.66
2023-07-19T08:21:35.288Z,94441.13
2023-07-19T08:24:03.130Z,94449.06
2023-07-19T08:26:29.665Z,94455.09
2023-07-19T08:28:56.225Z,94456.31
2023-07-19T08:31:24.787Z,94455.09
2023-07-19T08:33:55.565Z,94459.13
2023-07-19T08:36:22.086Z,94455.66
2023-07-19T08:38:48.725Z,94450.13
2023-07-19T08:41:18.145Z,94462.47
2023-07-19T08:43:45.081Z,94438.25
2023-07-19T08:46:16.470Z,94453.56
2023-07-19T08:48:48.235Z,94449.59
2023-07-19T08:51:15.765Z,94453.47
2023-07-19T08:53:42.149Z,94457.31
2023-07-19T08:56:08.638Z,94442.63
2023-07-19T08:58:35.769Z,94453.03
2023-07-19T09:01:02.298Z,94449.25
2023-07-19T09:03:28.848Z,94447.19
2023-07-19T09:05:55.406Z,94445.47
2023-07-19T09:08:21.956Z,94459.38
2023-07-19T09:10:48.597Z,94446.75
2023-07-19T09:13:19.611Z,94426.09
2023-07-19T09:15:48.576Z,94441.56
2023-07-19T09:18:15.280Z,94445.81
2023-07-19T09:20:41.975Z,94456.81
2023-07-19T09:23:08.555Z,94434.09
2023-07-19T09:25:50.961Z,94437.72
2023-07-19T09:28:23.229Z,94437.59
2023-07-19T09:31:23.460Z,94442.34
2023-07-19T09:33:54.284Z,94431.53
2023-07-19T09:36:20.986Z,94438.03
2023-07-19T09:38:47.801Z,94421.50
2023-07-19T09:41:14.307Z,94428.69
2023-07-19T09:43:40.872Z,94427.84
2023-07-19T09:46:07.401Z,94439.91
2023-07-19T09:48:33.867Z,94432.72
2023-07-19T09:51:02.030Z,94430.91
2023-07-19T09:53:28.347Z,94440.78
2023-07-19T09:55:54.866Z,94426.56
2023-07-19T09:58:21.924Z,94432.28
2023-07-19T10:00:48.403Z,94433.97
2023-07-19T10:03:22.256Z,94428.91
2023-07-19T10:05:57.745Z,94442.97
2023-07-19T10:08:24.248Z,94436.66
2023-07-19T10:10:56.902Z,94438.56
2023-07-19T10:13:32.143Z,94433.47
2023-07-19T10:15:58.760Z,94425.28
2023-07-19T10:18:25.896Z,94430.00
2023-07-19T10:21:04.193Z,94440.78
2023-07-19T10:23:35.676Z,94441.03
2023-07-19T10:26:07.350Z,94447.53
2023-07-19T10:28:33.906Z,94434.88
2023-07-19T10:31:17.335Z,94433.31
2023-07-19T10:33:47.871Z,94431.16
2023-07-19T10:36:15.424Z,94436.53
2023-07-19T10:38:42.049Z,94441.94
2023-07-19T10:41:10.127Z,94439.66
2023-07-19T10:43:48.354Z,94434.31
2023-07-19T10:46:19.722Z,94446.44
2023-07-19T10:48:46.681Z,94440.09
2023-07-19T10:51:13.286Z,94433.72
2023-07-19T10:53:49.211Z,94432.16
2023-07-19T10:56:20.465Z,94439.75
2023-07-19T10:58:47.380Z,94431.41
2023-07-19T11:01:14.158Z,94425.84
2023-07-19T11:03:43.612Z,94411.50
2023-07-19T11:06:10.441Z,94422.34
2023-07-19T11:08:36.986Z,94424.34
2023-07-19T11:11:03.609Z,94421.97
2023-07-19T11:13:31.707Z,94410.84
2023-07-19T11:15:59.058Z,94411.66
2023-07-19T11:18:30.372Z,94403.28
2023-07-19T11:20:58.405Z,94405.66
2023-07-19T11:23:25.824Z,94404.47
2023-07-19T11:25:52.322Z,94396.91
2023-07-19T11:28:45.797Z,94392.09
2023-07-19T11:31:34.894Z,94383.34
2023-07-19T11:34:20.351Z,94384.94
2023-07-19T11:36:47.694Z,94379.78
2023-07-19T11:39:15.471Z,94372.59
2023-07-19T11:41:49.634Z,94376.59
2023-07-19T11:44:20.293Z,94375.81
2023-07-19T11:46:47.649Z,94380.19
2023-07-19T11:49:14.226Z,94381.78
2023-07-19T11:51:41.399Z,94363.00
2023-07-19T11:54:07.919Z,94376.56
2023-07-19T11:56:35.145Z,94373.00
2023-07-19T11:59:01.857Z,94368.22
2023-07-19T12:01:28.562Z,94357.06
2023-07-19T12:03:55.318Z,94360.22
2023-07-19T12:06:22.170Z,94369.78
2023-07-19T12:08:48.827Z,94356.66
2023-07-19T12:11:15.488Z,94351.44
2023-07-19T12:13:42.053Z,94357.00
2023-07-19T12:16:08.597Z,94358.97
2023-07-19T12:18:35.192Z,94351.41
2023-07-19T12:21:01.884Z,94359.34
2023-07-19T12:25:58.278Z,94345.00
2023-07-19T12:28:24.793Z,94347.00
2023-07-19T12:30:51.487Z,94339.81
2023-07-19T12:33:18.448Z,94335.03
2023-07-19T12:35:47.189Z,94350.94
2023-07-19T12:38:15.098Z,94345.28
2023-07-19T12:40:42.236Z,94346.47
2023-07-19T12:43:08.897Z,94330.16
2023-07-19T12:45:35.405Z,94339.31
2023-07-19T12:48:03.668Z,94332.16
2023-07-19T12:50:30.343Z,94326.13
2023-07-19T12:52:56.854Z,94323.69
2023-07-19T12:55:23.382Z,94319.28
2023-07-19T12:57:50.124Z,94322.50
2023-07-19T13:00:17.552Z,94320.09
2023-07-19T13:02:45.835Z,94316.13
2023-07-19T13:05:12.795Z,94320.50
2023-07-19T13:07:39.505Z,94314.09
2023-07-19T13:10:06.457Z,94312.91
2023-07-19T13:12:33.029Z,94318.38
2023-07-19T13:14:59.569Z,94315.97
2023-07-19T13:17:26.344Z,94311.56
2023-07-19T13:19:53.059Z,94308.75
2023-07-19T13:22:20.322Z,94318.22
2023-07-19T13:24:46.969Z,94312.22
2023-07-19T13:29:58.332Z,94288.34
2023-07-19T13:32:25.010Z,94300.69
2023-07-19T13:34:51.611Z,94285.19
2023-07-19T13:37:18.120Z,94262.00
2023-07-19T13:39:45.566Z,94279.91
2023-07-19T13:42:12.131Z,94263.53
2023-07-19T13:44:38.620Z,94294.22
2023-07-19T13:47:05.463Z,94295.41
2023-07-19T13:49:32.023Z,94282.25
2023-07-19T13:51:58.556Z,94297.00
2023-07-19T13:54:25.106Z,94261.44
2023-07-19T13:56:51.736Z,94306.84
2023-07-19T13:59:18.251Z,94304.34
2023-07-19T14:01:44.829Z,94288.66
2023-07-19T14:04:11.573Z,94305.72
2023-07-19T14:06:39.451Z,94268.56
2023-07-19T14:09:06.135Z,94258.91
2023-07-19T14:11:32.973Z,94269.69
2023-07-19T14:13:59.534Z,94291.19
2023-07-19T14:16:26.410Z,94267.19
2023-07-19T14:18:53.258Z,94285.94
2023-07-19T14:21:20.029Z,94244.31
2023-07-19T14:23:46.616Z,94256.72
2023-07-19T14:26:13.177Z,94283.31
2023-07-19T14:28:39.694Z,94260.53
2023-07-19T14:31:06.345Z,94233.69
2023-07-19T14:33:32.903Z,94279.53
2023-07-19T14:36:00.689Z,94271.88
2023-07-19T14:38:29.489Z,94271.44
2023-07-19T14:40:56.923Z,94269.03
2023-07-19T14:43:24.652Z,94244.66
2023-07-19T14:45:54.588Z,94252.19
2023-07-19T14:48:22.204Z,94272.59
2023-07-19T14:50:56.258Z,94263.00
2023-07-19T14:53:23.425Z,94273.41
2023-07-19T14:55:52.621Z,94287.81
2023-07-19T14:58:19.702Z,94251.03
2023-07-19T15:03:28.251Z,94275.66
2023-07-19T15:05:57.206Z,94269.25
2023-07-19T15:08:23.797Z,94262.97
2023-07-19T15:10:50.462Z,94266.16
2023-07-19T15:13:20.463Z,94274.13
2023-07-19T15:15:47.563Z,94273.94
2023-07-19T15:18:14.610Z,94285.09
2023-07-19T15:20:42.701Z,94241.97
2023-07-19T15:23:09.868Z,94251.13
2023-07-19T15:25:36.528Z,94256.28
2023-07-19T15:28:18.258Z,94263.81
2023-07-19T15:30:47.761Z,94285.75
2023-07-19T15:33:14.269Z,94292.84
2023-07-19T15:35:40.891Z,94298.41
2023-07-19T15:38:07.338Z,94298.72
2023-07-19T15:40:33.902Z,94290.34
2023-07-19T15:43:01.104Z,94295.00
2023-07-19T15:45:27.606Z,94298.50
2023-07-19T15:47:54.586Z,94293.75
2023-07-19T15:50:21.799Z,94292.97
2023-07-19T15:52:48.290Z,94285.41
2023-07-19T15:55:14.761Z,94279.03
2023-07-19T15:57:41.238Z,94290.91
2023-07-19T16:00:10.264Z,94288.94
2023-07-19T16:02:36.736Z,94283.75
2023-07-19T16:05:03.397Z,94279.44
2023-07-19T16:07:29.922Z,94287.38
2023-07-19T16:09:56.580Z,94291.28
2023-07-19T16:12:23.109Z,94297.63
2023-07-19T16:14:49.735Z,94293.25
2023-07-19T16:17:16.537Z,94290.88
2023-07-19T16:19:43.022Z,94290.44
2023-07-19T16:22:09.483Z,94289.56
2023-07-19T16:24:35.982Z,94291.91
2023-07-19T16:27:12.860Z,94288.28
2023-07-19T16:29:46.358Z,94293.03
2023-07-19T16:32:17.566Z,94294.56
2023-07-19T16:34:49.003Z,94299.22
2023-07-19T16:37:20.221Z,94298.38
2023-07-19T16:39:51.717Z,94308.69
2023-07-19T16:42:22.389Z,94309.44
2023-07-19T16:44:55.403Z,94311.41
2023-07-19T16:47:30.576Z,94310.09
2023-07-19T16:49:59.071Z,94300.88
2023-07-19T16:52:29.343Z,94303.53
2023-07-19T16:54:58.364Z,94307.78
2023-07-19T16:57:33.672Z,94312.41
2023-07-19T17:06:47.972Z,94313.59
2023-07-19T17:09:17.682Z,94313.59
2023-07-19T17:11:45.881Z,94317.53
2023-07-19T17:14:16.529Z,94322.66
2023-07-19T17:16:58.114Z,94322.13
2023-07-19T17:19:37.450Z,94316.59
2023-07-19T17:22:06.751Z,94314.19
2023-07-19T17:24:35.649Z,94314.50
2023-07-19T17:27:04.565Z,94321.59
2023-07-19T17:29:33.901Z,94314.38
2023-07-19T17:32:02.448Z,94317.94
2023-07-19T17:34:32.451Z,94320.28
2023-07-19T17:37:01.818Z,94323.41
2023-07-19T17:39:30.116Z,94322.97
2023-07-19T17:41:59.097Z,94326.75
2023-07-19T17:45:02.093Z,94321.06
2023-07-19T17:47:44.636Z,94319.84
2023-07-19T17:50:25.845Z,94335.16
2023-07-19T17:53:09.401Z,94336.72
2023-07-19T17:55:51.940Z,94334.31
2023-07-19T17:58:21.868Z,94340.88
2023-07-19T18:01:00.766Z,94341.16
2023-07-19T18:03:40.671Z,94337.16
2023-07-19T18:06:12.538Z,94344.16
2023-07-19T18:08:50.538Z,94351.16
2023-07-19T18:11:30.060Z,94350.22
2023-07-19T18:14:05.862Z,94353.63
2023-07-19T18:16:39.545Z,94360.19
2023-07-19T18:19:11.560Z,94359.16
2023-07-19T18:22:02.348Z,94350.28
2023-07-19T18:24:33.839Z,94361.97
2023-07-19T18:29:50.287Z,94371.63
2023-07-19T18:32:24.729Z,94374.19
2023-07-19T18:34:54.734Z,94373.22
2023-07-19T18:37:25.323Z,94378.13
2023-07-19T18:39:56.549Z,94386.19
2023-07-19T18:42:25.725Z,94379.63
2023-07-19T18:44:55.249Z,94392.16
2023-07-19T18:47:24.482Z,94391.16
2023-07-19T18:49:52.909Z,94399.59
2023-07-19T18:52:24.389Z,94413.56
2023-07-19T18:54:58.304Z,94415.69
2023-07-19T18:57:27.862Z,94406.28
2023-07-19T18:59:56.149Z,94416.19
2023-07-19T19:02:24.103Z,94413.94
2023-07-19T19:04:53.471Z,94420.94
2023-07-19T19:07:21.591Z,94423.16
2023-07-19T19:09:50.797Z,94426.97
2023-07-19T19:12:18.822Z,94419.53
2023-07-19T19:14:52.977Z,94418.38
2023-07-19T19:20:03.950Z,94419.69
2023-07-19T19:22:36.384Z,94422.09
2023-07-19T19:25:07.461Z,94424.25
2023-07-19T19:27:39.630Z,94432.66
2023-07-19T19:30:07.317Z,94449.72
2023-07-19T19:32:34.431Z,94431.91
2023-07-19T19:35:03.021Z,94444.75
2023-07-19T19:37:31.594Z,94440.59
2023-07-19T19:39:59.606Z,94445.88
2023-07-19T19:42:30.441Z,94446.75
2023-07-19T19:44:58.302Z,94443.78
2023-07-19T19:47:25.684Z,94443.84
2023-07-19T19:49:52.943Z,94443.97
2023-07-19T19:52:20.958Z,94446.78
2023-07-19T19:54:48.900Z,94451.38
2023-07-19T19:57:18.030Z,94448.19
2023-07-19T20:02:40.528Z,94464.38
2023-07-19T20:05:07.868Z,94474.16
2023-07-19T20:07:35.054Z,94469.06
2023-07-19T20:10:17.277Z,94466.03
2023-07-19T20:12:45.885Z,94464.00
2023-07-19T20:15:15.871Z,94466.78
2023-07-19T20:17:43.614Z,94460.22
2023-07-19T20:22:47.736Z,94463.81
2023-07-19T20:25:29.052Z,94467.25
2023-07-19T20:28:04.081Z,94470.81
2023-07-19T20:30:31.146Z,94470.19
2023-07-19T20:32:59.041Z,94466.81
2023-07-19T20:43:08.885Z,94475.47
2023-07-19T20:45:38.687Z,94477.09
2023-07-19T20:48:10.377Z,94479.34
2023-07-19T20:50:37.814Z,94480.31
2023-07-19T20:53:06.935Z,94486.47
2023-07-19T20:55:37.105Z,94477.63
2023-07-19T20:58:06.175Z,94472.16
2023-07-19T21:00:38.569Z,94472.03
2023-07-19T21:03:07.867Z,94482.84
2023-07-19T21:05:48.234Z,94494.75
2023-07-19T21:08:15.327Z,94483.16
2023-07-19T21:10:44.687Z,94483.34
2023-07-19T21:13:15.132Z,94484.97
2023-07-19T21:15:46.520Z,94481.56
2023-07-19T21:18:18.159Z,94488.50
2023-07-19T21:20:50.081Z,94482.34
2023-07-19T21:23:17.909Z,94483.66
2023-07-19T21:25:46.247Z,94473.50
2023-07-19T21:28:18.003Z,94481.88
2023-07-19T21:30:50.153Z,94474.59
2023-07-19T21:33:38.611Z,94474.78
2023-07-19T21:36:08.404Z,94478.66
2023-07-19T21:38:35.941Z,94478.97
2023-07-19T21:41:05.039Z,94483.81
2023-07-19T21:43:37.271Z,94478.47
2023-07-19T21:49:48.199Z,94491.53
2023-07-19T21:52:16.005Z,94482.28
2023-07-19T21:54:50.072Z,94495.16
2023-07-19T21:57:20.587Z,94486.59
2023-07-19T22:03:04.778Z,94495.44
2023-07-19T22:06:02.831Z,94497.19
2023-07-19T22:14:31.443Z,94512.97
2023-07-19T22:17:09.530Z,94506.81
2023-07-19T22:19:39.663Z,94500.69
2023-07-19T22:22:44.708Z,94503.75
2023-07-19T22:25:34.492Z,94510.00
2023-07-19T22:28:31.085Z,94506.78
2023-07-19T22:31:03.291Z,94499.19
2023-07-19T22:36:44.729Z,94501.88
2023-07-19T22:42:30.449Z,94501.91
2023-07-19T22:45:23.239Z,94506.72
2023-07-19T22:50:40.833Z,94502.81
2023-07-19T22:53:35.325Z,94495.25
2023-07-19T22:56:05.816Z,94502.31
2023-07-19T22:58:54.861Z,94501.16
2023-07-19T23:02:10.002Z,94495.81
2023-07-19T23:05:00.919Z,94503.53
2023-07-19T23:10:12.459Z,94501.06
2023-07-19T23:12:48.391Z,94502.47
2023-07-19T23:15:55.049Z,94496.47
2023-07-19T23:28:24.033Z,94491.16
2023-07-19T23:34:37.630Z,94482.09
2023-07-19T23:40:37.679Z,94479.47
2023-07-19T23:57:30.526Z,94474.66
